sensor_id;sensor_type;location;lat;lon;timestamp;temperature;humidity
5492;DHT22;2768;53.540;10.224;2023-04-06T00:00:59;5.40;1.00
5492;DHT22;2768;53.540;10.224;2023-04-06T00:06:53;5.10;1.00
5492;DHT22;2768;53.540;10.224;2023-04-06T00:12:46;4.90;1.00
5492;DHT22;2768;53.540;10.224;2023-04-06T00:18:41;4.80;1.00
5492;DHT22;2768;53.540;10.224;2023-04-06T00:24:35;4.90;1.00
5492;DHT22;2768;53.540;10.224;2023-04-06T00:30:28;4.70;1.00
5492;DHT22;2768;53.540;10.224;2023-04-06T00:36:24;4.50;1.00
5492;DHT22;2768;53.540;10.224;2023-04-06T00:42:18;4.50;1.00
5492;DHT22;2768;53.540;10.224;2023-04-06T00:48:16;4.60;1.00
5492;DHT22;2768;53.540;10.224;2023-04-06T00:54:11;5.00;1.00
5492;DHT22;2768;53.540;10.224;2023-04-06T01:00:07;5.10;1.00
5492;DHT22;2768;53.540;10.224;2023-04-06T01:06:02;5.00;1.00
5492;DHT22;2768;53.540;10.224;2023-04-06T01:12:03;4.40;1.00
5492;DHT22;2768;53.540;10.224;2023-04-06T01:17:58;4.50;1.00
5492;DHT22;2768;53.540;10.224;2023-04-06T01:23:54;4.20;1.00
5492;DHT22;2768;53.540;10.224;2023-04-06T01:29:54;3.80;1.00
5492;DHT22;2768;53.540;10.224;2023-04-06T01:36:03;4.50;1.00
5492;DHT22;2768;53.540;10.224;2023-04-06T01:41:58;4.70;1.00
5492;DHT22;2768;53.540;10.224;2023-04-06T01:47:53;4.60;1.00
5492;DHT22;2768;53.540;10.224;2023-04-06T01:53:53;4.60;1.00
5492;DHT22;2768;53.540;10.224;2023-04-06T02:00:42;4.70;1.00
5492;DHT22;2768;53.540;10.224;2023-04-06T02:06:36;4.80;1.00
5492;DHT22;2768;53.540;10.224;2023-04-06T02:12:32;4.70;1.00
5492;DHT22;2768;53.540;10.224;2023-04-06T02:18:27;4.60;1.00
5492;DHT22;2768;53.540;10.224;2023-04-06T02:24:21;4.60;1.00
5492;DHT22;2768;53.540;10.224;2023-04-06T02:30:15;4.30;1.00
5492;DHT22;2768;53.540;10.224;2023-04-06T02:36:10;4.10;1.00
5492;DHT22;2768;53.540;10.224;2023-04-06T02:42:04;4.00;1.00
5492;DHT22;2768;53.540;10.224;2023-04-06T02:47:57;3.90;1.00
5492;DHT22;2768;53.540;10.224;2023-04-06T02:53:53;4.10;1.00
5492;DHT22;2768;53.540;10.224;2023-04-06T02:59:47;3.90;1.00
5492;DHT22;2768;53.540;10.224;2023-04-06T03:05:49;4.00;1.00
5492;DHT22;2768;53.540;10.224;2023-04-06T03:11:51;4.20;1.00
5492;DHT22;2768;53.540;10.224;2023-04-06T03:17:46;4.30;1.00
5492;DHT22;2768;53.540;10.224;2023-04-06T03:24:06;4.20;1.00
5492;DHT22;2768;53.540;10.224;2023-04-06T03:30:01;4.10;1.00
5492;DHT22;2768;53.540;10.224;2023-04-06T03:35:59;4.20;1.00
5492;DHT22;2768;53.540;10.224;2023-04-06T03:41:54;4.10;1.00
5492;DHT22;2768;53.540;10.224;2023-04-06T03:47:59;4.00;1.00
5492;DHT22;2768;53.540;10.224;2023-04-06T03:53:55;3.70;1.00
5492;DHT22;2768;53.540;10.224;2023-04-06T03:59:49;3.30;1.00
5492;DHT22;2768;53.540;10.224;2023-04-06T04:05:43;3.40;1.00
5492;DHT22;2768;53.540;10.224;2023-04-06T04:11:37;3.20;1.00
5492;DHT22;2768;53.540;10.224;2023-04-06T04:17:30;3.70;1.00
5492;DHT22;2768;53.540;10.224;2023-04-06T04:23:25;3.90;1.00
5492;DHT22;2768;53.540;10.224;2023-04-06T04:29:19;3.90;1.00
5492;DHT22;2768;53.540;10.224;2023-04-06T04:35:16;3.90;1.00
5492;DHT22;2768;53.540;10.224;2023-04-06T04:41:11;3.70;1.00
5492;DHT22;2768;53.540;10.224;2023-04-06T04:47:07;3.70;1.00
5492;DHT22;2768;53.540;10.224;2023-04-06T04:53:07;3.80;1.00
5492;DHT22;2768;53.540;10.224;2023-04-06T04:59:03;3.70;1.00
5492;DHT22;2768;53.540;10.224;2023-04-06T05:05:00;3.70;1.00
5492;DHT22;2768;53.540;10.224;2023-04-06T05:10:54;3.80;1.00
5492;DHT22;2768;53.540;10.224;2023-04-06T05:16:49;3.80;1.00
5492;DHT22;2768;53.540;10.224;2023-04-06T05:22:45;3.70;1.00
5492;DHT22;2768;53.540;10.224;2023-04-06T05:28:39;3.60;1.00
5492;DHT22;2768;53.540;10.224;2023-04-06T05:34:36;3.60;1.00
5492;DHT22;2768;53.540;10.224;2023-04-06T05:40:31;3.60;1.00
5492;DHT22;2768;53.540;10.224;2023-04-06T05:46:25;3.60;1.00
5492;DHT22;2768;53.540;10.224;2023-04-06T05:52:22;3.40;1.00
5492;DHT22;2768;53.540;10.224;2023-04-06T05:58:16;3.50;1.00
5492;DHT22;2768;53.540;10.224;2023-04-06T06:04:12;3.70;1.00
5492;DHT22;2768;53.540;10.224;2023-04-06T06:10:08;3.60;1.00
5492;DHT22;2768;53.540;10.224;2023-04-06T06:16:02;3.80;1.00
5492;DHT22;2768;53.540;10.224;2023-04-06T06:22:00;3.70;5.10
5492;DHT22;2768;53.540;10.224;2023-04-06T06:27:56;3.80;3.40
5492;DHT22;2768;53.540;10.224;2023-04-06T06:33:52;4.00;7.40
5492;DHT22;2768;53.540;10.224;2023-04-06T06:39:46;4.20;12.70
5492;DHT22;2768;53.540;10.224;2023-04-06T06:45:41;4.20;16.40
5492;DHT22;2768;53.540;10.224;2023-04-06T06:51:37;4.30;18.40
5492;DHT22;2768;53.540;10.224;2023-04-06T06:57:31;4.50;16.50
5492;DHT22;2768;53.540;10.224;2023-04-06T07:03:26;4.60;14.40
5492;DHT22;2768;53.540;10.224;2023-04-06T07:09:20;4.70;10.30
5492;DHT22;2768;53.540;10.224;2023-04-06T07:15:13;4.90;4.30
5492;DHT22;2768;53.540;10.224;2023-04-06T07:21:08;5.10;3.80
5492;DHT22;2768;53.540;10.224;2023-04-06T07:27:02;5.20;3.90
5492;DHT22;2768;53.540;10.224;2023-04-06T07:32:55;5.30;1.00
5492;DHT22;2768;53.540;10.224;2023-04-06T07:38:50;5.50;1.00
5492;DHT22;2768;53.540;10.224;2023-04-06T07:44:44;5.60;1.00
5492;DHT22;2768;53.540;10.224;2023-04-06T07:50:38;5.80;1.00
5492;DHT22;2768;53.540;10.224;2023-04-06T07:56:34;6.00;1.00
5492;DHT22;2768;53.540;10.224;2023-04-06T08:02:27;6.00;1.00
5492;DHT22;2768;53.540;10.224;2023-04-06T08:08:21;6.30;1.00
5492;DHT22;2768;53.540;10.224;2023-04-06T08:14:16;6.50;1.00
5492;DHT22;2768;53.540;10.224;2023-04-06T08:20:10;6.70;1.00
5492;DHT22;2768;53.540;10.224;2023-04-06T08:26:03;6.80;1.00
5492;DHT22;2768;53.540;10.224;2023-04-06T08:31:58;6.90;1.00
5492;DHT22;2768;53.540;10.224;2023-04-06T08:37:51;7.00;1.00
5492;DHT22;2768;53.540;10.224;2023-04-06T08:43:47;7.10;1.00
5492;DHT22;2768;53.540;10.224;2023-04-06T08:49:43;7.20;1.00
5492;DHT22;2768;53.540;10.224;2023-04-06T08:55:38;7.30;1.00
5492;DHT22;2768;53.540;10.224;2023-04-06T09:01:33;7.40;1.00
5492;DHT22;2768;53.540;10.224;2023-04-06T09:07:33;7.60;1.00
5492;DHT22;2768;53.540;10.224;2023-04-06T09:13:26;7.80;1.00
5492;DHT22;2768;53.540;10.224;2023-04-06T09:19:20;8.10;1.00
5492;DHT22;2768;53.540;10.224;2023-04-06T09:25:20;8.10;1.00
5492;DHT22;2768;53.540;10.224;2023-04-06T09:31:16;8.40;1.00
5492;DHT22;2768;53.540;10.224;2023-04-06T09:37:13;8.50;1.00
5492;DHT22;2768;53.540;10.224;2023-04-06T09:43:09;8.70;1.00
5492;DHT22;2768;53.540;10.224;2023-04-06T09:49:03;8.80;1.00
5492;DHT22;2768;53.540;10.224;2023-04-06T09:55:02;9.10;1.00
5492;DHT22;2768;53.540;10.224;2023-04-06T10:01:11;9.40;1.00
5492;DHT22;2768;53.540;10.224;2023-04-06T10:07:06;9.70;1.00
5492;DHT22;2768;53.540;10.224;2023-04-06T10:13:00;10.80;1.00
5492;DHT22;2768;53.540;10.224;2023-04-06T10:19:01;12.10;1.00
5492;DHT22;2768;53.540;10.224;2023-04-06T10:24:55;13.00;1.00
5492;DHT22;2768;53.540;10.224;2023-04-06T10:30:48;13.50;1.00
5492;DHT22;2768;53.540;10.224;2023-04-06T10:36:43;14.20;1.00
5492;DHT22;2768;53.540;10.224;2023-04-06T10:42:37;14.80;1.00
5492;DHT22;2768;53.540;10.224;2023-04-06T10:48:37;15.30;1.00
5492;DHT22;2768;53.540;10.224;2023-04-06T10:54:33;15.20;1.00
5492;DHT22;2768;53.540;10.224;2023-04-06T11:00:27;16.20;1.00
5492;DHT22;2768;53.540;10.224;2023-04-06T11:06:38;16.60;1.00
5492;DHT22;2768;53.540;10.224;2023-04-06T11:12:32;16.50;1.00
5492;DHT22;2768;53.540;10.224;2023-04-06T11:18:26;17.00;1.00
5492;DHT22;2768;53.540;10.224;2023-04-06T11:24:21;17.00;1.00
5492;DHT22;2768;53.540;10.224;2023-04-06T11:30:17;17.70;1.00
5492;DHT22;2768;53.540;10.224;2023-04-06T11:36:11;17.90;1.00
5492;DHT22;2768;53.540;10.224;2023-04-06T11:42:07;18.70;1.00
5492;DHT22;2768;53.540;10.224;2023-04-06T11:48:02;18.70;1.00
5492;DHT22;2768;53.540;10.224;2023-04-06T11:53:56;18.90;1.00
5492;DHT22;2768;53.540;10.224;2023-04-06T11:59:49;18.60;1.00
5492;DHT22;2768;53.540;10.224;2023-04-06T12:05:44;19.30;1.00
5492;DHT22;2768;53.540;10.224;2023-04-06T12:11:38;19.70;1.00
5492;DHT22;2768;53.540;10.224;2023-04-06T12:17:32;19.90;1.00
5492;DHT22;2768;53.540;10.224;2023-04-06T12:23:27;20.20;1.00
5492;DHT22;2768;53.540;10.224;2023-04-06T12:29:20;19.50;1.00
5492;DHT22;2768;53.540;10.224;2023-04-06T12:35:14;19.70;1.00
5492;DHT22;2768;53.540;10.224;2023-04-06T12:41:09;19.60;1.00
5492;DHT22;2768;53.540;10.224;2023-04-06T12:47:03;19.50;1.00
5492;DHT22;2768;53.540;10.224;2023-04-06T12:52:56;19.80;1.00
5492;DHT22;2768;53.540;10.224;2023-04-06T12:58:52;19.90;1.00
5492;DHT22;2768;53.540;10.224;2023-04-06T13:04:46;20.00;1.00
5492;DHT22;2768;53.540;10.224;2023-04-06T13:10:43;19.70;1.00
5492;DHT22;2768;53.540;10.224;2023-04-06T13:16:38;19.40;1.00
5492;DHT22;2768;53.540;10.224;2023-04-06T13:22:31;18.90;1.00
5492;DHT22;2768;53.540;10.224;2023-04-06T13:28:24;18.90;1.00
5492;DHT22;2768;53.540;10.224;2023-04-06T13:34:19;18.90;1.00
5492;DHT22;2768;53.540;10.224;2023-04-06T13:40:13;19.30;1.00
5492;DHT22;2768;53.540;10.224;2023-04-06T13:46:06;19.30;1.00
5492;DHT22;2768;53.540;10.224;2023-04-06T13:52:01;19.90;1.00
5492;DHT22;2768;53.540;10.224;2023-04-06T13:57:54;19.70;1.00
5492;DHT22;2768;53.540;10.224;2023-04-06T14:03:48;20.10;1.00
5492;DHT22;2768;53.540;10.224;2023-04-06T14:09:43;19.90;1.00
5492;DHT22;2768;53.540;10.224;2023-04-06T14:15:36;20.00;1.00
5492;DHT22;2768;53.540;10.224;2023-04-06T14:21:29;20.30;1.00
5492;DHT22;2768;53.540;10.224;2023-04-06T14:27:24;20.60;1.00
5492;DHT22;2768;53.540;10.224;2023-04-06T14:33:17;20.00;1.00
5492;DHT22;2768;53.540;10.224;2023-04-06T14:39:11;20.20;1.00
5492;DHT22;2768;53.540;10.224;2023-04-06T14:45:06;20.40;1.00
5492;DHT22;2768;53.540;10.224;2023-04-06T14:51:00;20.60;1.00
5492;DHT22;2768;53.540;10.224;2023-04-06T14:56:53;20.10;1.00
5492;DHT22;2768;53.540;10.224;2023-04-06T15:02:47;19.60;1.00
5492;DHT22;2768;53.540;10.224;2023-04-06T15:08:41;19.10;1.00
5492;DHT22;2768;53.540;10.224;2023-04-06T15:14:34;18.90;1.00
5492;DHT22;2768;53.540;10.224;2023-04-06T15:20:29;18.40;1.00
5492;DHT22;2768;53.540;10.224;2023-04-06T15:26:22;18.00;1.00
5492;DHT22;2768;53.540;10.224;2023-04-06T15:32:15;17.20;1.00
5492;DHT22;2768;53.540;10.224;2023-04-06T15:38:10;16.50;1.00
5492;DHT22;2768;53.540;10.224;2023-04-06T15:44:03;16.20;1.00
5492;DHT22;2768;53.540;10.224;2023-04-06T15:49:56;15.80;1.00
5492;DHT22;2768;53.540;10.224;2023-04-06T15:55:50;15.60;1.00
5492;DHT22;2768;53.540;10.224;2023-04-06T16:01:45;15.30;1.00
5492;DHT22;2768;53.540;10.224;2023-04-06T16:07:38;15.10;1.00
5492;DHT22;2768;53.540;10.224;2023-04-06T16:13:33;14.90;1.00
5492;DHT22;2768;53.540;10.224;2023-04-06T16:19:26;14.80;1.00
5492;DHT22;2768;53.540;10.224;2023-04-06T16:25:19;14.70;1.00
5492;DHT22;2768;53.540;10.224;2023-04-06T16:31:18;14.60;1.00
5492;DHT22;2768;53.540;10.224;2023-04-06T16:37:12;14.30;1.00
5492;DHT22;2768;53.540;10.224;2023-04-06T16:43:05;14.20;1.00
5492;DHT22;2768;53.540;10.224;2023-04-06T16:49:02;14.20;1.00
5492;DHT22;2768;53.540;10.224;2023-04-06T16:54:55;14.00;1.00
5492;DHT22;2768;53.540;10.224;2023-04-06T17:00:48;13.90;1.00
5492;DHT22;2768;53.540;10.224;2023-04-06T17:06:43;13.70;1.00
5492;DHT22;2768;53.540;10.224;2023-04-06T17:12:36;13.60;1.00
5492;DHT22;2768;53.540;10.224;2023-04-06T17:18:29;13.50;1.00
5492;DHT22;2768;53.540;10.224;2023-04-06T17:24:24;13.40;1.00
5492;DHT22;2768;53.540;10.224;2023-04-06T17:30:18;13.30;1.00
5492;DHT22;2768;53.540;10.224;2023-04-06T17:36:11;13.10;1.00
5492;DHT22;2768;53.540;10.224;2023-04-06T17:42:05;13.00;1.00
5492;DHT22;2768;53.540;10.224;2023-04-06T17:47:59;12.90;1.00
5492;DHT22;2768;53.540;10.224;2023-04-06T17:53:52;12.70;1.00
5492;DHT22;2768;53.540;10.224;2023-04-06T17:59:47;12.70;1.00
5492;DHT22;2768;53.540;10.224;2023-04-06T18:05:40;12.50;1.00
5492;DHT22;2768;53.540;10.224;2023-04-06T18:11:34;12.40;1.00
5492;DHT22;2768;53.540;10.224;2023-04-06T18:17:28;12.30;1.00
5492;DHT22;2768;53.540;10.224;2023-04-06T18:23:22;12.20;1.00
5492;DHT22;2768;53.540;10.224;2023-04-06T18:29:16;12.20;1.00
5492;DHT22;2768;53.540;10.224;2023-04-06T18:35:11;12.10;1.00
5492;DHT22;2768;53.540;10.224;2023-04-06T18:41:06;12.00;1.00
5492;DHT22;2768;53.540;10.224;2023-04-06T18:46:59;11.90;1.00
5492;DHT22;2768;53.540;10.224;2023-04-06T18:52:54;11.90;1.00
5492;DHT22;2768;53.540;10.224;2023-04-06T18:58:48;11.80;1.00
5492;DHT22;2768;53.540;10.224;2023-04-06T19:04:42;11.70;1.00
5492;DHT22;2768;53.540;10.224;2023-04-06T19:10:37;11.60;1.00
5492;DHT22;2768;53.540;10.224;2023-04-06T19:16:30;11.50;1.00
5492;DHT22;2768;53.540;10.224;2023-04-06T19:22:23;11.40;1.00
5492;DHT22;2768;53.540;10.224;2023-04-06T19:28:18;11.30;1.00
5492;DHT22;2768;53.540;10.224;2023-04-06T19:34:11;11.30;1.00
5492;DHT22;2768;53.540;10.224;2023-04-06T19:40:08;11.20;1.00
5492;DHT22;2768;53.540;10.224;2023-04-06T19:46:03;11.20;1.00
5492;DHT22;2768;53.540;10.224;2023-04-06T19:51:57;11.20;1.00
5492;DHT22;2768;53.540;10.224;2023-04-06T19:57:50;11.10;1.00
5492;DHT22;2768;53.540;10.224;2023-04-06T20:03:44;11.00;1.00
5492;DHT22;2768;53.540;10.224;2023-04-06T20:09:38;10.90;1.00
5492;DHT22;2768;53.540;10.224;2023-04-06T20:15:32;10.90;1.00
5492;DHT22;2768;53.540;10.224;2023-04-06T20:21:27;10.80;1.00
5492;DHT22;2768;53.540;10.224;2023-04-06T20:27:20;10.70;1.00
5492;DHT22;2768;53.540;10.224;2023-04-06T20:33:14;10.70;1.00
5492;DHT22;2768;53.540;10.224;2023-04-06T20:39:08;10.60;1.00
5492;DHT22;2768;53.540;10.224;2023-04-06T20:45:02;10.60;1.00
5492;DHT22;2768;53.540;10.224;2023-04-06T20:50:56;10.60;1.00
5492;DHT22;2768;53.540;10.224;2023-04-06T20:56:51;10.50;1.00
5492;DHT22;2768;53.540;10.224;2023-04-06T21:02:44;10.40;1.00
5492;DHT22;2768;53.540;10.224;2023-04-06T21:08:38;10.40;1.00
5492;DHT22;2768;53.540;10.224;2023-04-06T21:14:33;10.30;1.00
5492;DHT22;2768;53.540;10.224;2023-04-06T21:20:27;10.30;1.00
5492;DHT22;2768;53.540;10.224;2023-04-06T21:26:20;10.20;1.00
5492;DHT22;2768;53.540;10.224;2023-04-06T21:32:14;10.10;1.00
5492;DHT22;2768;53.540;10.224;2023-04-06T21:38:08;10.00;1.00
5492;DHT22;2768;53.540;10.224;2023-04-06T21:44:01;10.00;1.00
5492;DHT22;2768;53.540;10.224;2023-04-06T21:49:55;10.00;1.00
5492;DHT22;2768;53.540;10.224;2023-04-06T21:55:48;9.90;1.00
5492;DHT22;2768;53.540;10.224;2023-04-06T22:01:42;9.80;1.00
5492;DHT22;2768;53.540;10.224;2023-04-06T22:07:37;9.70;1.00
5492;DHT22;2768;53.540;10.224;2023-04-06T22:13:29;9.70;1.00
5492;DHT22;2768;53.540;10.224;2023-04-06T22:19:22;9.80;1.00
5492;DHT22;2768;53.540;10.224;2023-04-06T22:25:17;9.70;1.00
5492;DHT22;2768;53.540;10.224;2023-04-06T22:31:11;9.50;1.00
5492;DHT22;2768;53.540;10.224;2023-04-06T22:37:04;9.50;1.00
5492;DHT22;2768;53.540;10.224;2023-04-06T22:42:59;9.50;1.00
5492;DHT22;2768;53.540;10.224;2023-04-06T22:48:52;9.40;1.00
5492;DHT22;2768;53.540;10.224;2023-04-06T22:54:45;9.40;1.00
5492;DHT22;2768;53.540;10.224;2023-04-06T23:00:40;9.20;1.00
5492;DHT22;2768;53.540;10.224;2023-04-06T23:06:33;9.20;1.00
5492;DHT22;2768;53.540;10.224;2023-04-06T23:12:27;9.20;1.00
5492;DHT22;2768;53.540;10.224;2023-04-06T23:18:22;9.20;1.00
5492;DHT22;2768;53.540;10.224;2023-04-06T23:24:15;9.10;1.00
5492;DHT22;2768;53.540;10.224;2023-04-06T23:30:08;9.00;1.00
5492;DHT22;2768;53.540;10.224;2023-04-06T23:36:03;9.00;1.00
5492;DHT22;2768;53.540;10.224;2023-04-06T23:41:57;9.00;1.00
5492;DHT22;2768;53.540;10.224;2023-04-06T23:47:50;9.00;1.00
5492;DHT22;2768;53.540;10.224;2023-04-06T23:53:45;8.80;1.00
5492;DHT22;2768;53.540;10.224;2023-04-06T23:59:38;8.70;1.00
